Mobridge Municipal Airport Mobridge US
ICAO: KMBG
IATA: MBG
Category: Medium
Scheduled Services: No

Elevation: 1716 ft
TransAlt. 18000 ft.

Airport Communications:
ASOS:121.425
HURON RDO:122.35
CTAF/UNICOM:122.8

KMBG Zoom In..

Runways:

(A) RW 12 length 4410 ft width 75 ft
---- / hdg 118

(B) RW 17 length 2399 ft width 250 ft
---- / hdg 171

(C) RW 30 length 4410 ft width 75 ft
---- / hdg 298

(D) RW 35 length 2399 ft width 250 ft
---- / hdg 351

Location; KMBG
Day. 25 / Time. 11.52 Zulu
* Altimeter: 30.24
* Temperature: -01° c. -30.2°f.
* Wind from: 140° Speed 03 kn.
Dewpoint: -03° c.
Visibility: 10 Statute Miles.
Clouds: Clear (automated report).

KMBG 251152Z AUTO 14003KT 10SM CLR M01/M03 A3024 RMK AO2 SLP253 70018 T10061028 10039 21006 58013


Wind From 140°
Speed 03 kn.

  YouTube Music Video
 
jpsmedia.com for Web Design  worldairports.se 2018   terms of use